N1545D -KBOS
Flight info
| Callsign | N1545D |
|---|---|
| Flight time | N/A |
| Altitude | VFR/015 |
| Route | |
| Aircraft | C208/L-VGD/C |
Departure
| Time | N/A |
|---|---|
| Airport | - |
Arrival
| Time | 2026-05-05 01:40 |
|---|---|
| Airport | Boston Logan International Airport (KBOS) |
| Time | Latitude | Longitude | Altitude | Speed | Heading |
|---|---|---|---|---|---|
| 2026-05-05 01:27 | 42.44322 | -71.47501 | 1581 ft | 114 kts | 112° |
| 2026-05-05 01:27 | 42.44290 | -71.46407 | 1854 ft | 120 kts | 101° |
| 2026-05-05 01:27 | 42.44303 | -71.45254 | 2089 ft | 124 kts | 101° |
| 2026-05-05 01:27 | 42.44313 | -71.44109 | 2400 ft | 121 kts | 97° |
| 2026-05-05 01:28 | 42.44293 | -71.42932 | 2609 ft | 129 kts | 100° |
| 2026-05-05 01:28 | 42.44244 | -71.41738 | 2867 ft | 126 kts | 100° |
| 2026-05-05 01:28 | 42.44285 | -71.40465 | 2879 ft | 147 kts | 89° |
| 2026-05-05 01:28 | 42.44363 | -71.39079 | 2830 ft | 145 kts | 99° |
| 2026-05-05 01:29 | 42.44171 | -71.37765 | 2863 ft | 143 kts | 115° |
| 2026-05-05 01:29 | 42.43903 | -71.36449 | 2875 ft | 148 kts | 113° |
| 2026-05-05 01:29 | 42.43650 | -71.35065 | 2879 ft | 154 kts | 112° |
| 2026-05-05 01:29 | 42.43390 | -71.33646 | 2880 ft | 156 kts | 112° |
| 2026-05-05 01:30 | 42.43115 | -71.32212 | 2876 ft | 158 kts | 112° |
| 2026-05-05 01:30 | 42.42840 | -71.30775 | 2884 ft | 157 kts | 112° |
| 2026-05-05 01:30 | 42.42559 | -71.29342 | 2885 ft | 158 kts | 112° |
| 2026-05-05 01:30 | 42.42279 | -71.27911 | 2885 ft | 157 kts | 113° |
| 2026-05-05 01:31 | 42.42000 | -71.26481 | 2889 ft | 157 kts | 112° |
| 2026-05-05 01:31 | 42.41895 | -71.24998 | 2873 ft | 165 kts | 77° |
| 2026-05-05 01:31 | 42.42511 | -71.23717 | 2901 ft | 163 kts | 46° |
| 2026-05-05 01:31 | 42.43241 | -71.22554 | 2901 ft | 161 kts | 47° |
| 2026-05-05 01:32 | 42.43962 | -71.21393 | 2901 ft | 161 kts | 49° |
| 2026-05-05 01:32 | 42.44687 | -71.20244 | 2901 ft | 161 kts | 47° |
| 2026-05-05 01:32 | 42.45402 | -71.19084 | 2900 ft | 160 kts | 47° |
| 2026-05-05 01:32 | 42.46116 | -71.17925 | 2908 ft | 160 kts | 49° |
| 2026-05-05 01:33 | 42.46834 | -71.16782 | 2902 ft | 159 kts | 47° |
| 2026-05-05 01:33 | 42.47547 | -71.15641 | 2906 ft | 159 kts | 48° |
| 2026-05-05 01:33 | 42.48267 | -71.14492 | 2902 ft | 161 kts | 47° |
| 2026-05-05 01:33 | 42.48735 | -71.13148 | 2841 ft | 161 kts | 96° |
| 2026-05-05 01:34 | 42.48535 | -71.11682 | 2707 ft | 159 kts | 115° |
| 2026-05-05 01:34 | 42.48233 | -71.10227 | 2573 ft | 162 kts | 115° |
| 2026-05-05 01:34 | 42.47918 | -71.08742 | 2421 ft | 166 kts | 116° |
| 2026-05-05 01:34 | 42.47604 | -71.07219 | 2250 ft | 169 kts | 115° |
| 2026-05-05 01:35 | 42.47294 | -71.05683 | 2089 ft | 169 kts | 115° |
| 2026-05-05 01:35 | 42.46990 | -71.04143 | 1913 ft | 169 kts | 115° |
| 2026-05-05 01:35 | 42.46708 | -71.02645 | 1905 ft | 160 kts | 115° |
| 2026-05-05 01:35 | 42.46439 | -71.01207 | 1900 ft | 156 kts | 116° |
| 2026-05-05 01:36 | 42.46183 | -70.99804 | 1898 ft | 152 kts | 114° |
| 2026-05-05 01:36 | 42.45917 | -70.98412 | 1896 ft | 151 kts | 115° |
| 2026-05-05 01:36 | 42.45543 | -70.97126 | 1822 ft | 142 kts | 140° |
| 2026-05-05 01:36 | 42.44798 | -70.96459 | 1706 ft | 120 kts | 184° |
| 2026-05-05 01:37 | 42.44044 | -70.96668 | 1607 ft | 108 kts | 206° |
| 2026-05-05 01:37 | 42.43343 | -70.96998 | 1542 ft | 107 kts | 205° |
| 2026-05-05 01:37 | 42.42637 | -70.97348 | 1410 ft | 111 kts | 206° |
| 2026-05-05 01:37 | 42.41922 | -70.97732 | 1197 ft | 111 kts | 207° |
| 2026-05-05 01:38 | 42.41222 | -70.98147 | 1041 ft | 109 kts | 206° |
| 2026-05-05 01:38 | 42.40504 | -70.98525 | 838 ft | 114 kts | 203° |
| 2026-05-05 01:38 | 42.39757 | -70.98906 | 697 ft | 115 kts | 202° |
| 2026-05-05 01:38 | 42.39069 | -70.99245 | 587 ft | 94 kts | 203° |
| 2026-05-05 01:39 | 42.38488 | -70.99541 | 364 ft | 85 kts | 203° |
| 2026-05-05 01:39 | 42.37955 | -70.99800 | 208 ft | 80 kts | 204° |
| 2026-05-05 01:39 | 42.37450 | -71.00045 | 81 ft | 74 kts | 205° |
| 2026-05-05 01:39 | 42.36994 | -71.00270 | 26 ft | 62 kts | 203° |
| 2026-05-05 01:40 | 42.36656 | -71.00435 | 24 ft | 36 kts | 199° |
| 2026-05-05 01:40 | 42.36474 | -71.00523 | 24 ft | 27 kts | 200° |
| 2026-05-05 01:40 | 42.36396 | -71.00647 | 24 ft | 12 kts | 283° |
| 2026-05-05 01:40 | 42.36424 | -71.00738 | 24 ft | 11 kts | 294° |
| 2026-05-05 01:41 | 42.36460 | -71.00856 | 25 ft | 16 kts | 293° |
| 2026-05-05 01:41 | 42.36492 | -71.00962 | 24 ft | 7 kts | 292° |
| 2026-05-05 01:41 | 42.36506 | -71.01010 | 24 ft | 9 kts | 292° |
| 2026-05-05 01:41 | 42.36540 | -71.01126 | 24 ft | 18 kts | 290° |
| 2026-05-05 01:42 | 42.36617 | -71.01197 | 24 ft | 14 kts | 15° |
| 2026-05-05 01:42 | 42.36705 | -71.01154 | 24 ft | 13 kts | 18° |
| 2026-05-05 01:42 | 42.36793 | -71.01156 | 25 ft | 12 kts | 327° |
| 2026-05-05 01:42 | 42.36848 | -71.01226 | 24 ft | 10 kts | 315° |
| 2026-05-05 01:43 | 42.36895 | -71.01287 | 24 ft | 9 kts | 317° |
| 2026-05-05 01:43 | 42.36938 | -71.01343 | 24 ft | 8 kts | 315° |
| 2026-05-05 01:43 | 42.36976 | -71.01396 | 26 ft | 8 kts | 314° |
| 2026-05-05 01:43 | 42.37024 | -71.01462 | 24 ft | 10 kts | 317° |
| 2026-05-05 01:44 | 42.37081 | -71.01540 | 24 ft | 16 kts | 317° |
| 2026-05-05 01:44 | 42.37165 | -71.01645 | 24 ft | 15 kts | 323° |
| 2026-05-05 01:44 | 42.37231 | -71.01741 | 24 ft | 13 kts | 321° |
| 2026-05-05 01:44 | 42.37292 | -71.01817 | 24 ft | 11 kts | 317° |
| 2026-05-05 01:45 | 42.37343 | -71.01888 | 25 ft | 10 kts | 312° |
| 2026-05-05 01:45 | 42.37394 | -71.01957 | 24 ft | 10 kts | 315° |
| 2026-05-05 01:45 | 42.37439 | -71.02020 | 25 ft | 9 kts | 314° |
| 2026-05-05 01:45 | 42.37479 | -71.02077 | 24 ft | 8 kts | 312° |
| 2026-05-05 01:46 | 42.37486 | -71.02129 | 24 ft | 4 kts | 224° |
| 2026-05-05 01:46 | 42.37477 | -71.02140 | 24 ft | 0 kts | 221° |
| 2026-05-05 01:46 | 42.37468 | -71.02172 | 24 ft | 8 kts | 285° |
| 2026-05-05 01:46 | 42.37485 | -71.02203 | 25 ft | 0 kts | 312° |